Time;durP1;ratioP1;P1;durP2;ratioP2;P2;SDS_P1;SDS_P2;PMS_P1;PMS_P2;Temp;Humidity;BMP_temperature;BMP_pressure;BME280_temperature;BME280_humidity;BME280_pressure;Samples;Min_cycle;Max_cycle;Signal;HPM_P1;HPM_P2
2023/03/09 00:01:31;;;;;;;59.40;31.70;;;;;;;1.69;96.48;98407.16;105458;1257;73442;-49
2023/03/09 00:04:00;;;;;;;62.90;33.60;;;;;;;1.70;96.48;98406.26;105667;1253;70034;-47
2023/03/09 00:06:29;;;;;;;59.10;33.10;;;;;;;1.73;96.65;98407.21;105520;1256;69993;-46
2023/03/09 00:08:57;;;;;;;64.10;34.90;;;;;;;1.70;96.35;98408.48;105528;1254;73852;-47
2023/03/09 00:11:26;;;;;;;64.90;36.10;;;;;;;1.66;96.64;98410.38;105496;1253;82367;-47
2023/03/09 00:13:55;;;;;;;67.50;37.20;;;;;;;1.63;96.64;98407.54;105449;1253;74348;-47
2023/03/09 00:16:26;;;;;;;73.90;41.00;;;;;;;1.61;96.61;98407.92;105779;1253;69890;-47
2023/03/09 00:18:57;;;;;;;66.50;37.70;;;;;;;1.60;96.59;98415.03;105453;1254;69864;-47
2023/03/09 00:21:37;;;;;;;69.50;36.90;;;;;;;1.61;96.25;98412.58;105423;1257;73624;-47
2023/03/09 00:24:07;;;;;;;;;;;;;;;1.61;96.15;98409.84;105441;1257;83339;-47
2023/03/09 00:26:38;;;;;;;71.50;36.70;;;;;;;1.57;96.07;98411.85;105415;1257;72746;-48
2023/03/09 00:29:08;;;;;;;66.90;36.00;;;;;;;1.57;96.34;98412.73;105719;1253;70476;-47
2023/03/09 00:31:37;;;;;;;66.80;36.70;;;;;;;1.56;96.37;98414.11;105582;1256;69939;-48
2023/03/09 00:34:06;;;;;;;65.10;35.70;;;;;;;1.54;96.48;98407.64;105368;1258;73912;-47
2023/03/09 00:36:36;;;;;;;67.00;37.20;;;;;;;1.53;96.54;98409.92;105556;1252;83520;-47
2023/03/09 00:39:05;;;;;;;66.40;36.70;;;;;;;1.50;96.78;98408.83;105571;1258;73104;-47
2023/03/09 00:41:34;;;;;;;69.30;38.30;;;;;;;1.48;96.65;98411.27;105606;1251;69992;-49
2023/03/09 00:44:04;;;;;;;64.10;35.60;;;;;;;1.47;96.57;98410.13;105695;1255;70002;-48
2023/03/09 00:46:34;;;;;;;62.10;35.10;;;;;;;1.50;96.44;98407.09;105522;1253;73578;-49
2023/03/09 00:49:05;;;;;;;62.60;35.50;;;;;;;1.51;96.61;98399.14;105669;1253;82579;-50
2023/03/09 00:51:36;;;;;;;62.10;34.90;;;;;;;1.53;96.52;98395.11;105505;1254;72924;-49
2023/03/09 00:54:05;;;;;;;59.80;33.60;;;;;;;1.54;96.54;98392.50;105473;1254;69935;-48
2023/03/09 00:56:34;;;;;;;59.90;34.60;;;;;;;1.54;96.63;98382.70;105507;1254;69865;-48
2023/03/09 00:59:03;;;;;;;57.60;33.90;;;;;;;1.53;96.50;98378.94;105532;1256;74247;-47
2023/03/09 01:01:31;;;;;;;57.90;33.90;;;;;;;1.51;96.65;98375.21;105358;1257;83385;-48
2023/03/09 01:04:01;;;;;;;62.60;34.40;;;;;;;1.48;96.64;98374.79;105735;1256;72777;-48
2023/03/09 01:06:30;;;;;;;61.70;34.30;;;;;;;1.43;96.67;98370.98;105474;1253;69879;-47
2023/03/09 01:08:58;;;;;;;60.10;35.10;;;;;;;1.41;97.09;98365.20;105630;1256;69881;-47
2023/03/09 01:11:26;;;;;;;62.40;33.60;;;;;;;1.42;96.82;98358.14;105477;1253;74804;-48
2023/03/09 01:13:55;;;;;;;55.20;32.60;;;;;;;1.45;96.70;98357.88;105372;1257;83380;-47
2023/03/09 01:16:23;;;;;;;57.10;30.30;;;;;;;1.44;96.27;98358.59;105430;1256;73887;-48
2023/03/09 01:18:51;;;;;;;53.30;31.50;;;;;;;1.44;96.58;98357.73;105335;1254;69975;-47
2023/03/09 01:21:20;;;;;;;57.90;32.30;;;;;;;1.45;96.73;98357.00;105410;1254;69890;-47
2023/03/09 01:23:48;;;;;;;53.80;30.70;;;;;;;1.47;96.84;98355.38;105642;1253;74865;-47
2023/03/09 01:26:16;;;;;;;49.10;29.00;;;;;;;1.46;96.87;98350.95;105427;1256;83303;-48
2023/03/09 01:28:46;;;;;;;51.20;30.00;;;;;;;1.45;97.00;98345.64;105444;1253;73745;-48
2023/03/09 01:31:15;;;;;;;52.20;29.90;;;;;;;1.43;96.96;98343.12;105333;1254;70043;-47
2023/03/09 01:33:44;;;;;;;51.00;30.40;;;;;;;1.42;96.78;98337.48;105488;1256;70060;-49
2023/03/09 01:36:16;;;;;;;47.40;26.90;;;;;;;1.42;97.14;98333.70;105394;1258;75179;-48
2023/03/09 01:38:45;;;;;;;48.40;28.50;;;;;;;1.44;96.76;98326.92;105398;1253;82944;-47
2023/03/09 01:41:14;;;;;;;49.70;28.30;;;;;;;1.45;96.75;98321.70;105479;1253;73053;-47
2023/03/09 01:43:52;;;;;;;45.10;25.00;;;;;;;1.44;96.47;98325.87;105461;1253;70002;-48
2023/03/09 01:46:30;;;;;;;42.20;26.30;;;;;;;1.43;96.43;98331.42;105443;1254;71512;-49
2023/03/09 01:49:19;;;;;;;46.10;26.30;;;;;;;1.43;96.55;98336.40;105584;1254;74630;-47
2023/03/09 01:52:03;;;;;;;42.70;25.80;;;;;;;1.45;96.67;98338.59;105369;1254;82558;-47
2023/03/09 01:54:41;;;;;;;41.90;24.80;;;;;;;1.43;96.84;98341.06;105420;1254;72915;-48
2023/03/09 01:57:19;;;;;;;46.30;26.90;;;;;;;1.41;96.95;98340.77;105458;1259;70010;-47
2023/03/09 01:59:49;;;;;;;47.30;26.70;;;;;;;1.37;96.95;98342.11;105318;1259;70015;-48
2023/03/09 02:02:18;;;;;;;;;;;;;;;1.36;97.10;98350.23;105503;1255;74377;-49
2023/03/09 02:04:51;;;;;;;45.30;25.10;;;;;;;1.33;97.08;98356.17;105358;1259;83549;-47
2023/03/09 02:07:21;;;;;;;44.80;26.00;;;;;;;1.29;96.98;98361.45;105268;1257;72732;-47
2023/03/09 02:10:06;;;;;;;;;;;;;;;1.31;96.91;98344.90;105624;1254;70075;-46
2023/03/09 02:12:38;;;;;;;46.40;26.30;;;;;;;1.32;96.95;98332.61;105680;1258;69881;-46
2023/03/09 02:15:07;;;;;;;42.10;24.80;;;;;;;1.33;96.89;98335.88;105384;1254;73778;-49
2023/03/09 02:17:35;;;;;;;42.40;25.80;;;;;;;1.36;97.09;98337.67;105516;1254;83161;-48
2023/03/09 02:20:13;;;;;;;42.50;24.20;;;;;;;1.38;97.08;98334.69;105378;1254;73752;-47
2023/03/09 02:22:42;;;;;;;42.50;22.70;;;;;;;1.40;97.18;98329.47;105398;1253;70079;-47
2023/03/09 02:25:16;;;;;;;41.70;24.80;;;;;;;1.38;97.17;98323.15;105820;1252;69939;-46
2023/03/09 02:27:45;;;;;;;46.20;26.50;;;;;;;1.36;97.41;98319.42;105551;1256;74183;-48
2023/03/09 02:30:14;;;;;;;45.20;25.20;;;;;;;1.35;97.29;98318.59;105422;1252;83537;-47
2023/03/09 02:32:42;;;;;;;44.40;25.00;;;;;;;1.32;97.21;98314.21;105324;1259;72866;-48
2023/03/09 02:35:11;;;;;;;45.70;23.80;;;;;;;1.33;96.89;98317.96;105528;1254;69992;-47
2023/03/09 02:37:41;;;;;;;43.70;25.30;;;;;;;1.35;96.97;98315.15;105680;1253;69817;-47
2023/03/09 02:40:26;;;;;;;40.70;23.80;;;;;;;1.36;97.16;98303.27;105554;1256;75059;-47
2023/03/09 02:42:56;;;;;;;38.90;23.90;;;;;;;1.37;96.93;98291.35;105465;1257;83445;-47
2023/03/09 02:45:25;;;;;;;45.60;25.50;;;;;;;1.37;97.16;98289.98;105513;1254;72212;-48
2023/03/09 02:47:54;;;;;;;45.60;25.40;;;;;;;1.33;97.17;98292.84;105547;1256;69941;-47
2023/03/09 02:50:23;;;;;;;45.40;25.10;;;;;;;1.30;97.37;98301.05;105509;1254;69958;-46
2023/03/09 02:52:51;;;;;;;42.70;25.30;;;;;;;1.29;97.32;98303.29;105477;1254;74972;-47
2023/03/09 02:55:20;;;;;;;46.80;25.80;;;;;;;1.29;97.31;98305.36;105398;1257;83760;-47
2023/03/09 02:57:48;;;;;;;47.60;26.30;;;;;;;1.31;97.17;98312.21;105754;1254;73833;-46
2023/03/09 03:00:21;;;;;;;43.90;24.50;;;;;;;1.31;96.82;98314.80;105518;1256;70023;-47
2023/03/09 03:02:50;;;;;;;43.80;24.50;;;;;;;1.32;97.22;98314.39;105616;1252;70708;-47
2023/03/09 03:05:18;;;;;;;42.70;24.00;;;;;;;1.32;97.06;98310.59;105521;1256;75110;-47
2023/03/09 03:07:47;;;;;;;41.90;24.30;;;;;;;1.33;97.09;98313.14;105575;1256;83291;-48
2023/03/09 03:10:16;;;;;;;43.60;24.50;;;;;;;1.31;97.00;98315.47;105836;1254;71673;-47
2023/03/09 03:12:44;;;;;;;42.70;25.00;;;;;;;1.24;97.01;98317.05;105559;1253;70086;-46
2023/03/09 03:15:13;;;;;;;41.40;24.80;;;;;;;1.21;97.09;98316.84;105563;1254;69922;-47
2023/03/09 03:17:41;;;;;;;47.90;26.50;;;;;;;1.17;97.13;98314.55;105527;1256;73755;-48
2023/03/09 03:20:13;;;;;;;44.90;24.80;;;;;;;1.16;97.23;98313.36;105583;1254;83559;-47
2023/03/09 03:22:46;;;;;;;44.90;25.00;;;;;;;1.20;97.43;98308.63;105521;1254;72328;-47
2023/03/09 03:25:16;;;;;;;41.30;23.40;;;;;;;1.23;97.17;98314.20;105481;1254;69928;-47
2023/03/09 03:27:46;;;;;;;40.90;23.40;;;;;;;1.23;97.22;98319.16;105337;1254;69993;-47
2023/03/09 03:30:14;;;;;;;40.70;23.50;;;;;;;1.23;97.09;98321.39;105524;1256;75270;-47
2023/03/09 03:32:44;;;;;;;37.80;22.50;;;;;;;1.22;97.03;98310.95;105562;1256;83406;-47
2023/03/09 03:35:13;;;;;;;38.50;23.10;;;;;;;1.23;97.06;98303.36;105783;1256;73410;-48
2023/03/09 03:37:44;;;;;;;42.00;23.70;;;;;;;1.19;96.97;98289.70;105493;1256;69959;-48
2023/03/09 03:40:13;;;;;;;41.60;23.40;;;;;;;1.16;97.25;98289.82;105499;1254;69880;-48
2023/03/09 03:42:43;;;;;;;45.60;25.50;;;;;;;1.14;97.26;98296.25;105282;1254;74987;-48
2023/03/09 03:45:12;;;;;;;41.50;23.90;;;;;;;1.10;97.19;98302.04;105557;1255;83166;-47
2023/03/09 03:47:41;;;;;;;39.90;22.80;;;;;;;1.06;97.26;98307.32;105411;1254;72777;-48
2023/03/09 03:50:10;;;;;;;42.30;24.10;;;;;;;1.09;97.17;98307.92;105461;1254;69925;-47
2023/03/09 03:52:46;;;;;;;44.50;24.00;;;;;;;1.10;97.17;98303.92;105566;1254;69973;-48
2023/03/09 03:55:15;;;;;;;42.50;22.90;;;;;;;1.09;97.17;98309.47;105538;1254;74771;-48
2023/03/09 03:57:43;;;;;;;39.30;22.00;;;;;;;1.07;97.11;98316.39;105540;1254;83486;-47
2023/03/09 04:00:12;;;;;;;40.70;23.30;;;;;;;1.09;97.32;98322.55;105488;1252;73982;-48
2023/03/09 04:02:42;;;;;;;40.70;23.40;;;;;;;1.11;97.37;98323.17;105361;1254;70514;-48
2023/03/09 04:05:18;;;;;;;38.50;23.10;;;;;;;1.09;97.41;98320.29;105348;1257;70038;-48
2023/03/09 04:07:48;;;;;;;41.80;24.40;;;;;;;1.10;97.63;98325.62;105399;1257;73724;-47
2023/03/09 04:10:17;;;;;;;38.90;23.60;;;;;;;1.12;97.81;98325.04;105594;1253;83455;-48
2023/03/09 04:12:46;;;;;;;39.80;24.30;;;;;;;1.10;97.70;98316.12;105720;1256;72760;-47
2023/03/09 04:15:15;;;;;;;49.60;25.90;;;;;;;1.11;97.93;98309.06;105603;1253;69973;-48
2023/03/09 04:17:44;;;;;;;42.00;23.30;;;;;;;1.10;97.71;98297.73;105570;1257;69953;-47
2023/03/09 04:20:13;;;;;;;42.50;24.20;;;;;;;1.10;97.42;98294.81;105581;1254;74790;-48
2023/03/09 04:22:43;;;;;;;39.60;23.30;;;;;;;1.09;97.21;98287.98;105436;1254;83783;-48
2023/03/09 04:25:15;;;;;;;38.40;22.40;;;;;;;1.08;97.27;98286.61;105514;1253;72681;-48
2023/03/09 04:27:44;;;;;;;36.60;21.40;;;;;;;1.07;97.32;98285.27;105537;1252;69957;-47
2023/03/09 04:30:20;;;;;;;39.10;22.10;;;;;;;1.06;97.25;98286.02;105609;1254;70007;-47
2023/03/09 04:32:50;;;;;;;40.70;24.20;;;;;;;1.04;97.15;98280.73;105921;1256;74849;-48
2023/03/09 04:35:19;;;;;;;37.00;23.40;;;;;;;0.99;97.21;98276.95;105470;1254;82598;-48
2023/03/09 04:37:51;;;;;;;41.10;24.40;;;;;;;0.95;97.29;98269.69;105850;1254;74943;-48
2023/03/09 04:40:19;;;;;;;;;;;;;;;0.93;97.46;98264.23;105548;1255;69975;-48
2023/03/09 04:42:49;;;;;;;40.90;24.30;;;;;;;0.88;97.49;98269.39;105495;1253;69873;-48
2023/03/09 04:45:18;;;;;;;45.50;24.10;;;;;;;0.83;97.46;98268.34;105438;1254;75078;-48
2023/03/09 04:47:48;;;;;;;36.70;20.90;;;;;;;0.81;97.15;98274.08;105499;1254;83770;-48
2023/03/09 04:50:16;;;;;;;37.20;21.60;;;;;;;0.79;97.36;98272.26;105467;1254;73870;-47
2023/03/09 04:52:51;;;;;;;34.10;21.40;;;;;;;0.78;97.27;98270.23;105835;1252;69999;-47
2023/03/09 04:55:19;;;;;;;35.10;19.60;;;;;;;0.76;97.29;98264.95;105584;1254;69979;-47
2023/03/09 04:57:48;;;;;;;31.30;20.30;;;;;;;0.74;97.21;98261.56;105674;1256;74668;-48
2023/03/09 05:00:19;;;;;;;35.30;19.60;;;;;;;0.74;97.45;98266.23;105414;1256;83336;-47
2023/03/09 05:02:48;;;;;;;31.40;18.90;;;;;;;0.74;97.53;98267.10;105608;1254;73695;-48
2023/03/09 05:05:17;;;;;;;33.50;20.20;;;;;;;0.69;97.51;98266.88;105578;1254;70056;-47
2023/03/09 05:07:46;;;;;;;31.00;19.80;;;;;;;0.66;97.65;98269.03;105552;1254;70246;-47
2023/03/09 05:10:15;;;;;;;37.80;21.40;;;;;;;0.66;97.90;98269.38;105677;1256;74823;-48
2023/03/09 05:12:46;;;;;;;36.70;20.40;;;;;;;0.65;97.82;98271.98;105528;1256;83440;-47
2023/03/09 05:15:17;;;;;;;29.10;18.40;;;;;;;0.65;97.71;98271.66;105510;1256;72036;-47
2023/03/09 05:17:46;;;;;;;33.20;19.20;;;;;;;0.64;97.47;98282.17;105479;1256;69982;-47
2023/03/09 05:20:16;;;;;;;30.90;18.00;;;;;;;0.61;97.40;98280.71;105432;1252;69880;-46
2023/03/09 05:22:54;;;;;;;35.20;18.50;;;;;;;0.59;97.36;98278.18;105504;1256;74992;-47
2023/03/09 05:25:22;;;;;;;32.20;17.40;;;;;;;0.59;97.48;98280.80;105589;1254;82869;-48
2023/03/09 05:27:52;;;;;;;29.20;16.70;;;;;;;0.58;97.51;98279.43;105596;1255;73839;-52
2023/03/09 05:30:21;;;;;;;31.90;18.50;;;;;;;0.55;97.65;98278.15;105619;1256;69886;-52
2023/03/09 05:32:50;;;;;;;30.30;18.70;;;;;;;0.55;98.02;98281.43;106028;1252;69942;-47
2023/03/09 05:35:21;;;;;;;;;;;;;;;0.53;98.06;98277.86;105715;1256;72906;-48
2023/03/09 05:37:50;;;;;;;28.30;17.50;;;;;;;0.52;98.02;98280.84;106114;1251;83707;-47
2023/03/09 05:40:22;;;;;;;31.50;16.60;;;;;;;0.48;97.91;98282.83;105730;1254;72704;-47
2023/03/09 05:42:55;;;;;;;27.60;16.30;;;;;;;0.51;97.80;98280.17;105509;1254;70046;-47
2023/03/09 05:45:24;;;;;;;27.00;15.30;;;;;;;0.51;97.62;98284.30;105674;1255;70153;-47
2023/03/09 05:47:52;;;;;;;26.00;15.30;;;;;;;0.50;97.61;98288.78;105529;1257;74208;-47
2023/03/09 05:50:20;;;;;;;24.60;14.90;;;;;;;0.50;97.60;98287.06;105485;1256;83358;-47
2023/03/09 05:52:49;;;;;;;24.30;15.30;;;;;;;0.52;97.70;98294.58;105507;1253;72615;-47
2023/03/09 05:55:19;;;;;;;21.40;13.60;;;;;;;0.53;97.73;98294.35;105528;1254;69874;-47
2023/03/09 05:57:47;;;;;;;21.60;13.70;;;;;;;0.53;97.86;98291.11;105612;1254;69922;-47
2023/03/09 06:00:18;;;;;;;21.70;14.10;;;;;;;0.51;98.02;98291.16;105548;1254;75023;-47
2023/03/09 06:02:52;;;;;;;19.80;13.10;;;;;;;0.47;97.94;98291.30;105572;1256;83393;-48
2023/03/09 06:05:25;;;;;;;33.70;16.50;;;;;;;0.44;97.96;98291.37;105638;1256;73864;-47
2023/03/09 06:07:53;;;;;;;24.60;14.40;;;;;;;0.43;98.12;98290.02;105636;1254;69830;-48
2023/03/09 06:10:22;;;;;;;20.60;13.70;;;;;;;0.45;97.65;98290.82;105686;1251;69810;-47
2023/03/09 06:12:51;;;;;;;20.50;12.80;;;;;;;0.45;97.72;98288.76;105647;1256;73779;-46
2023/03/09 06:15:20;;;;;;;20.20;12.50;;;;;;;0.48;97.80;98287.98;105666;1254;83483;-46
2023/03/09 06:17:48;;;;;;;26.20;14.20;;;;;;;0.47;97.69;98282.71;105587;1256;74340;-47
2023/03/09 06:20:20;;;;;;;17.20;12.10;;;;;;;0.45;97.67;98283.97;105706;1256;69916;-47
2023/03/09 06:22:50;;;;;;;;;;;;;;;0.45;97.73;98282.58;105569;1252;69983;-50
2023/03/09 06:25:18;;;;;;;19.60;12.60;;;;;;;0.44;98.10;98282.62;105575;1256;72941;-51
2023/03/09 06:27:46;;;;;;;20.80;14.00;;;;;;;0.44;98.20;98285.87;105747;1251;82193;-49
2023/03/09 06:30:17;;;;;;;22.90;15.00;;;;;;;0.46;98.53;98286.16;105607;1254;72604;-47
2023/03/09 06:32:48;;;;;;;;;;;;;;;0.46;98.23;98288.23;105723;1250;69873;-47
2023/03/09 06:35:16;;;;;;;20.30;13.00;;;;;;;0.47;98.10;98293.52;106011;1254;69959;-47
2023/03/09 06:37:45;;;;;;;18.40;12.20;;;;;;;0.47;97.86;98294.04;105568;1254;74608;-47
2023/03/09 06:40:17;;;;;;;20.90;12.80;;;;;;;0.47;97.86;98295.92;105912;1256;83497;-47
2023/03/09 06:42:46;;;;;;;17.00;12.00;;;;;;;0.50;97.95;98299.11;105651;1254;73809;-47
2023/03/09 06:45:15;;;;;;;16.40;11.90;;;;;;;0.51;98.01;98306.80;105431;1253;69986;-47
2023/03/09 06:47:43;;;;;;;16.80;11.10;;;;;;;0.53;97.94;98301.43;105591;1254;69843;-47
2023/03/09 06:50:12;;;;;;;13.90;11.00;;;;;;;0.49;97.96;98304.45;105574;1256;72893;-47
2023/03/09 06:52:43;;;;;;;15.30;11.50;;;;;;;0.48;98.16;98306.72;105799;1252;83480;-48
2023/03/09 06:55:11;;;;;;;17.40;11.80;;;;;;;0.49;98.35;98303.58;105793;1251;73647;-47
2023/03/09 06:57:52;;;;;;;15.40;11.50;;;;;;;0.54;98.33;98304.30;105837;1252;69986;-47
2023/03/09 07:00:21;;;;;;;15.60;11.30;;;;;;;0.62;98.24;98304.08;105576;1254;69973;-47
2023/03/09 07:02:53;;;;;;;16.90;11.80;;;;;;;0.66;98.19;98302.22;105593;1257;74990;-47
2023/03/09 07:05:21;;;;;;;14.20;10.70;;;;;;;0.67;97.87;98300.98;105528;1254;83232;-48
2023/03/09 07:07:50;;;;;;;13.90;10.70;;;;;;;0.68;98.00;98300.11;105593;1254;72699;-48
2023/03/09 07:10:18;;;;;;;12.90;9.90;;;;;;;0.69;97.87;98294.74;105568;1256;69922;-47
2023/03/09 07:12:47;;;;;;;13.30;9.90;;;;;;;0.67;97.85;98293.40;105492;1252;69880;-49
2023/03/09 07:15:16;;;;;;;13.30;11.00;;;;;;;0.64;97.69;98293.00;105670;1256;74413;-48
2023/03/09 07:17:44;;;;;;;16.30;11.60;;;;;;;0.61;97.92;98287.24;105577;1257;83376;-49
2023/03/09 07:20:12;;;;;;;17.20;11.80;;;;;;;0.61;98.02;98294.13;105622;1254;73937;-48
2023/03/09 07:22:41;;;;;;;16.20;11.80;;;;;;;0.60;98.04;98293.62;105832;1256;69896;-49
2023/03/09 07:25:09;;;;;;;18.30;11.60;;;;;;;0.59;97.73;98295.75;105626;1251;70497;-49
2023/03/09 07:27:37;;;;;;;16.40;11.50;;;;;;;0.60;97.91;98301.90;105545;1254;75123;-48
2023/03/09 07:30:06;;;;;;;15.40;10.80;;;;;;;0.60;97.93;98299.99;105602;1254;82550;-48
2023/03/09 07:32:34;;;;;;;15.50;11.00;;;;;;;0.61;97.90;98301.01;105610;1256;72139;-49
2023/03/09 07:35:03;;;;;;;13.20;10.20;;;;;;;0.62;97.94;98306.29;105587;1255;70003;-49
2023/03/09 07:37:31;;;;;;;13.60;9.90;;;;;;;0.63;97.95;98309.02;105861;1254;69859;-49
2023/03/09 07:39:59;;;;;;;14.40;10.00;;;;;;;0.65;98.23;98312.20;105660;1251;75115;-50
2023/03/09 07:42:27;;;;;;;16.70;11.20;;;;;;;0.66;98.36;98311.83;105588;1254;83832;-50
2023/03/09 07:45:25;;;;;;;16.80;12.10;;;;;;;0.65;98.47;98311.52;105572;1254;72739;-55
2023/03/09 07:47:54;;;;;;;15.60;11.20;;;;;;;0.64;98.22;98316.55;105692;1253;69907;-48
2023/03/09 07:50:23;;;;;;;15.40;10.80;;;;;;;0.61;98.29;98314.05;105932;1256;69952;-49
2023/03/09 07:52:54;;;;;;;15.00;10.50;;;;;;;0.59;98.24;98316.50;105559;1256;74005;-50
2023/03/09 07:55:23;;;;;;;16.00;11.50;;;;;;;0.62;98.06;98325.89;105626;1254;83450;-50
2023/03/09 07:57:51;;;;;;;13.10;9.70;;;;;;;0.64;98.02;98329.62;105729;1254;73801;-50
2023/03/09 08:00:22;;;;;;;15.20;10.50;;;;;;;0.66;98.16;98334.34;105463;1256;69989;-50
2023/03/09 08:02:51;;;;;;;12.50;9.50;;;;;;;0.66;98.02;98339.16;105560;1257;70066;-50
2023/03/09 08:05:21;;;;;;;12.90;9.70;;;;;;;0.64;97.93;98343.34;105594;1254;73854;-50
2023/03/09 08:07:49;;;;;;;13.90;9.80;;;;;;;0.62;97.96;98341.69;105632;1254;83418;-53
2023/03/09 08:10:18;;;;;;;11.60;9.20;;;;;;;0.62;98.18;98344.79;105560;1253;72860;-50
2023/03/09 08:12:48;;;;;;;16.00;10.00;;;;;;;0.58;98.15;98349.55;105532;1256;70008;-50
2023/03/09 08:15:22;;;;;;;13.00;9.70;;;;;;;0.56;98.38;98351.16;105493;1257;69215;-54
2023/03/09 08:17:50;;;;;;;18.60;12.30;;;;;;;0.57;98.58;98354.73;105592;1254;75092;-52
2023/03/09 08:20:19;;;;;;;16.10;10.90;;;;;;;0.58;98.53;98351.61;105853;1256;82953;-53
2023/03/09 08:22:47;;;;;;;14.70;10.20;;;;;;;0.58;98.26;98358.15;105456;1256;73409;-50
2023/03/09 08:25:17;;;;;;;17.30;11.30;;;;;;;0.60;98.24;98361.86;105370;1253;69201;-52
2023/03/09 08:27:46;;;;;;;14.70;10.70;;;;;;;0.62;98.37;98364.04;105470;1254;69101;-53
2023/03/09 08:30:18;;;;;;;16.70;11.70;;;;;;;0.70;98.57;98373.11;105565;1254;75106;-51
2023/03/09 08:32:48;;;;;;;14.80;11.20;;;;;;;0.74;98.43;98374.02;105487;1254;83915;-51
2023/03/09 08:35:18;;;;;;;26.40;14.40;;;;;;;0.77;98.48;98380.96;105917;1254;73646;-51
2023/03/09 08:37:47;;;;;;;20.80;14.70;;;;;;;0.85;98.89;98386.40;105559;1256;69115;-55
2023/03/09 08:40:16;;;;;;;22.90;14.80;;;;;;;0.89;98.83;98389.01;105583;1256;69070;-54
2023/03/09 08:42:44;;;;;;;19.60;13.70;;;;;;;0.98;99.03;98398.39;105554;1256;73972;-50
2023/03/09 08:45:13;;;;;;;18.90;14.30;;;;;;;1.01;98.60;98403.98;105380;1254;151661;-52
2023/03/09 08:47:41;;;;;;;22.10;15.80;;;;;;;0.99;98.54;98416.91;105493;1254;73302;-51
2023/03/09 08:50:10;;;;;;;21.90;15.40;;;;;;;0.99;98.26;98422.61;105534;1256;69979;-50
2023/03/09 08:52:40;;;;;;;30.20;18.70;;;;;;;0.96;98.03;98423.04;105970;1255;69116;-55
2023/03/09 08:55:10;;;;;;;21.80;14.40;;;;;;;0.95;98.02;98428.58;105664;1254;74915;-57
2023/03/09 08:57:38;;;;;;;18.20;13.40;;;;;;;0.97;98.15;98435.73;106041;1256;82481;-55
2023/03/09 09:00:11;;;;;;;18.50;13.00;;;;;;;1.00;98.16;98441.15;105667;1256;71835;-54
2023/03/09 09:02:40;;;;;;;20.10;14.10;;;;;;;1.01;98.23;98449.02;105774;1254;68997;-54
2023/03/09 09:05:10;;;;;;;19.90;13.60;;;;;;;0.98;98.36;98449.97;105978;1256;69106;-55
2023/03/09 09:07:38;;;;;;;21.20;15.00;;;;;;;0.98;98.50;98454.99;105544;1256;74849;-58
2023/03/09 09:10:07;;;;;;;23.50;16.40;;;;;;;0.97;98.36;98464.44;105607;1252;82010;-55
2023/03/09 09:12:41;;;;;;;24.10;16.60;;;;;;;0.95;98.32;98473.96;105545;1251;72788;-54
2023/03/09 09:15:10;;;;;;;22.50;15.70;;;;;;;0.97;98.42;98475.83;105540;1254;69185;-55
2023/03/09 09:17:38;;;;;;;18.40;14.20;;;;;;;0.99;98.08;98480.38;105680;1254;69166;-55
2023/03/09 09:20:08;;;;;;;20.70;14.80;;;;;;;0.99;98.08;98482.96;105551;1257;73928;-55
2023/03/09 09:22:36;;;;;;;21.30;14.80;;;;;;;1.00;97.94;98491.37;105681;1251;83810;-59
2023/03/09 09:25:08;;;;;;;20.70;14.60;;;;;;;1.00;98.08;98489.83;105395;1260;72880;-53
2023/03/09 09:27:36;;;;;;;20.40;13.80;;;;;;;0.98;97.96;98490.55;105653;1250;69196;-63
2023/03/09 09:30:06;;;;;;;24.20;16.20;;;;;;;0.96;98.33;98495.60;105831;1255;69164;-61
2023/03/09 09:32:34;;;;;;;24.70;16.10;;;;;;;0.92;98.27;98501.92;106057;1257;73871;-63
2023/03/09 09:35:04;;;;;;;24.80;16.80;;;;;;;0.92;98.55;98515.00;105541;1251;83359;-52
2023/03/09 09:37:33;;;;;;;23.50;16.80;;;;;;;0.94;98.75;98526.80;105523;1254;72684;-53
2023/03/09 09:40:01;;;;;;;23.90;16.10;;;;;;;0.99;98.84;98530.96;105750;1255;68998;-54
2023/03/09 09:42:33;;;;;;;22.60;16.30;;;;;;;1.03;98.60;98531.70;105481;1255;69113;-58
2023/03/09 09:45:04;;;;;;;23.00;15.10;;;;;;;1.05;98.38;98533.53;105889;1254;73812;-60
2023/03/09 09:47:33;;;;;;;20.20;15.10;;;;;;;1.13;98.68;98541.58;105472;1254;83795;-60
2023/03/09 09:50:01;;;;;;;20.60;14.50;;;;;;;1.19;98.78;98540.20;105918;1254;74231;-61
2023/03/09 09:52:44;;;;;;;19.70;14.90;;;;;;;1.27;98.62;98543.76;105559;1258;69139;-61
2023/03/09 09:55:18;;;;;;;19.70;14.80;;;;;;;1.34;98.63;98554.73;105614;1254;69069;-61
2023/03/09 09:57:56;;;;;;;20.80;15.00;;;;;;;1.32;98.54;98567.15;105369;1254;75008;-61
2023/03/09 10:00:34;;;;;;;19.00;14.30;;;;;;;1.30;98.49;98580.66;105592;1256;83911;-61
2023/03/09 10:03:21;;;;;;;20.20;15.10;;;;;;;1.27;98.58;98585.38;105661;1256;73772;-61
2023/03/09 10:06:08;;;;;;;24.80;16.40;;;;;;;1.30;98.73;98584.09;105855;1256;69172;-61
2023/03/09 10:08:42;;;;;;;23.70;16.10;;;;;;;1.32;98.53;98578.00;105718;1256;69122;-62
2023/03/09 10:11:27;;;;;;;21.70;15.00;;;;;;;1.40;98.63;98583.29;105612;1256;73736;-62
2023/03/09 10:14:02;;;;;;;21.30;15.30;;;;;;;1.46;98.48;98593.28;105493;1260;82538;-60
2023/03/09 10:16:35;;;;;;;23.30;15.50;;;;;;;1.46;98.47;98601.02;105717;1254;73730;-61
2023/03/09 10:19:11;;;;;;;20.20;14.40;;;;;;;1.44;98.24;98604.17;105570;1253;69113;-65
2023/03/09 10:21:48;;;;;;;18.20;13.20;;;;;;;1.43;98.14;98607.11;105505;1259;69186;-66
2023/03/09 10:24:22;;;;;;;17.90;13.80;;;;;;;1.43;98.69;98610.23;105802;1255;74358;-65
2023/03/09 10:26:52;;;;;;;22.10;15.90;;;;;;;1.43;99.13;98622.12;106039;1255;83362;-67
2023/03/09 10:29:49;;;;;;;20.00;14.50;;;;;;;1.42;98.86;98635.71;105695;1256;74042;-66
2023/03/09 10:32:54;;;;;;;21.90;14.80;;;;;;;1.36;98.54;98640.89;105330;1257;69087;-63
2023/03/09 10:35:37;;;;;;;20.20;15.00;;;;;;;1.30;98.43;98640.70;105472;1252;69051;-63
2023/03/09 10:38:12;;;;;;;21.60;14.70;;;;;;;1.26;97.99;98651.83;105756;1254;73835;-61
2023/03/09 10:40:49;;;;;;;19.50;14.00;;;;;;;1.30;98.53;98660.50;105666;1256;83192;-61
2023/03/09 10:43:19;;;;;;;18.30;13.90;;;;;;;1.36;98.63;98665.34;106077;1257;73862;-60
2023/03/09 10:45:47;;;;;;;19.80;13.80;;;;;;;1.37;98.51;98676.14;106287;1256;69071;-61
2023/03/09 10:48:24;;;;;;;19.30;13.90;;;;;;;1.40;98.72;98685.16;105763;1254;69159;-61
2023/03/09 10:51:00;;;;;;;24.70;17.00;;;;;;;1.46;98.96;98692.77;105624;1256;74258;-61
2023/03/09 10:53:41;;;;;;;21.30;15.60;;;;;;;1.48;98.95;98697.48;106190;1256;84222;-62
2023/03/09 10:56:13;;;;;;;;;;;;;;;1.51;99.20;98700.88;105538;1256;73889;-61
2023/03/09 10:58:41;;;;;;;22.60;15.60;;;;;;;1.51;98.85;98702.24;105508;1256;69167;-61
2023/03/09 11:01:16;;;;;;;24.50;18.00;;;;;;;1.53;98.90;98703.39;106045;1256;69035;-62
2023/03/09 11:03:44;;;;;;;23.70;18.20;;;;;;;1.55;98.90;98705.76;105774;1257;74775;-61
2023/03/09 11:06:15;;;;;;;25.50;18.40;;;;;;;1.58;98.87;98709.98;105603;1266;84913;-61
2023/03/09 11:08:53;;;;;;;25.50;17.70;;;;;;;1.64;98.76;98703.98;105518;1255;73434;-61
2023/03/09 11:11:43;;;;;;;24.30;17.30;;;;;;;1.69;98.72;98709.67;105846;1255;69182;-61
2023/03/09 11:14:29;;;;;;;24.60;18.10;;;;;;;1.80;99.10;98721.09;106136;1257;69197;-60
2023/03/09 11:16:59;;;;;;;25.60;18.70;;;;;;;1.88;98.90;98722.58;105701;1256;75953;-51
2023/03/09 11:19:28;;;;;;;24.90;17.60;;;;;;;1.93;98.39;98725.34;105330;1259;83358;-50
2023/03/09 11:22:01;;;;;;;24.90;17.70;;;;;;;1.93;98.59;98732.59;105395;1258;72681;-50
2023/03/09 11:24:43;;;;;;;23.90;18.60;;;;;;;1.97;98.86;98733.84;105427;1251;69895;-47
2023/03/09 11:27:21;;;;;;;24.90;18.90;;;;;;;2.04;99.08;98742.95;105832;1251;69756;-53
2023/03/09 11:30:02;;;;;;;26.80;19.40;;;;;;;2.08;99.16;98752.48;105784;1256;74974;-53
2023/03/09 11:32:30;;;;;;;29.20;20.90;;;;;;;2.09;98.87;98760.21;105586;1257;84009;-52
2023/03/09 11:34:59;;;;;;;24.30;19.00;;;;;;;2.07;98.51;98763.20;105436;1256;73545;-51
2023/03/09 11:37:37;;;;;;;25.10;17.90;;;;;;;2.10;98.68;98767.07;105612;1252;69877;-50